createdAt,value
2023-03-31T00:01:01.040Z,15.20
2023-03-31T00:09:07.059Z,15.20
2023-03-31T00:17:15.294Z,14.70
2023-03-31T00:25:21.177Z,14.60
2023-03-31T00:33:29.922Z,14.50
2023-03-31T00:41:36.248Z,14.40
2023-03-31T00:49:48.109Z,14.40
2023-03-31T00:57:56.451Z,14.10
2023-03-31T01:06:10.610Z,13.80
2023-03-31T01:14:16.371Z,13.90
2023-03-31T01:22:53.221Z,13.30
2023-03-31T01:31:32.671Z,13.60
2023-03-31T01:40:05.511Z,13.70
2023-03-31T01:48:18.354Z,13.90
2023-03-31T01:56:34.158Z,13.60
2023-03-31T02:04:43.402Z,13.30
2023-03-31T02:12:53.165Z,13.30
2023-03-31T02:21:01.220Z,13.50
2023-03-31T02:29:09.738Z,13.00
2023-03-31T02:37:16.060Z,13.30
2023-03-31T02:45:50.792Z,13.30
2023-03-31T02:54:10.474Z,13.00
2023-03-31T03:02:46.468Z,12.60
2023-03-31T03:11:04.864Z,12.30
2023-03-31T03:19:13.713Z,12.40
2023-03-31T03:27:19.142Z,12.10
2023-03-31T03:35:28.513Z,12.30
2023-03-31T03:43:34.038Z,12.00
2023-03-31T03:51:42.151Z,12.20
2023-03-31T03:59:47.643Z,12.60
2023-03-31T04:07:55.629Z,11.80
2023-03-31T04:16:01.156Z,11.60
2023-03-31T04:24:11.887Z,11.20
2023-03-31T04:32:21.883Z,11.20
2023-03-31T04:40:30.056Z,11.10
2023-03-31T04:48:35.552Z,11.60
2023-03-31T04:56:43.750Z,11.60
2023-03-31T05:04:49.311Z,11.90
2023-03-31T05:12:57.427Z,11.20
2023-03-31T05:21:12.979Z,11.30
2023-03-31T05:29:21.321Z,11.60
2023-03-31T05:37:27.498Z,11.90
2023-03-31T05:45:35.574Z,12.00
2023-03-31T05:53:42.266Z,12.00
2023-03-31T06:01:50.425Z,11.90
2023-03-31T06:09:56.217Z,11.70
2023-03-31T06:18:04.364Z,12.00
2023-03-31T06:26:12.300Z,12.60
2023-03-31T06:34:21.460Z,12.30
2023-03-31T06:42:27.176Z,12.60
2023-03-31T06:50:35.184Z,12.90
2023-03-31T06:58:40.823Z,12.90
2023-03-31T07:06:48.981Z,13.40
2023-03-31T07:14:54.489Z,13.20
2023-03-31T07:23:02.525Z,13.70
2023-03-31T07:31:14.616Z,13.80
2023-03-31T07:39:22.847Z,13.60
2023-03-31T07:47:28.738Z,13.90
2023-03-31T07:55:36.822Z,13.70
2023-03-31T08:03:42.333Z,13.80
2023-03-31T08:11:50.423Z,14.10
2023-03-31T08:19:55.857Z,14.30
2023-03-31T08:28:03.928Z,14.40
2023-03-31T08:36:11.787Z,14.30
2023-03-31T23:46:06.817Z,14.60
2023-03-31T23:54:12.562Z,14.80
